Time;durP1;ratioP1;P1;durP2;ratioP2;P2;SDS_P1;SDS_P2;PMS_P1;PMS_P2;Temp;Humidity;BMP_temperature;BMP_pressure;BME280_temperature;BME280_humidity;BME280_pressure;Samples;Min_cycle;Max_cycle;Signal;HPM_P1;HPM_P2
2024/04/01 00:00:17;;;;;;;0.00;0.00;;;;;;;12.87;100.00;100506.88;106169;1255;62050;-75
2024/04/01 00:02:45;;;;;;;0.80;0.60;;;;;;;12.83;100.00;100499.57;106141;1254;75897;-79
2024/04/01 00:05:13;;;;;;;0.30;0.30;;;;;;;12.78;100.00;100496.40;106026;1256;67421;-75
2024/04/01 00:07:43;;;;;;;0.00;0.00;;;;;;;12.70;100.00;100495.13;106018;1254;72678;-74
2024/04/01 00:10:11;;;;;;;0.20;0.20;;;;;;;12.62;100.00;100495.21;105782;1253;62088;-75
2024/04/01 00:12:38;;;;;;;0.00;0.00;;;;;;;12.61;100.00;100494.57;105987;1252;62013;-75
2024/04/01 00:15:06;;;;;;;0.20;0.20;;;;;;;12.61;100.00;100489.85;105917;1254;74487;-80
2024/04/01 00:17:34;;;;;;;0.40;0.40;;;;;;;12.63;100.00;100493.84;106010;1254;68350;-75
2024/04/01 00:20:02;;;;;;;0.00;0.00;;;;;;;12.62;100.00;100493.08;105890;1254;71082;-75
2024/04/01 00:22:30;;;;;;;0.00;0.00;;;;;;;12.59;100.00;100488.35;106101;1256;62088;-79
2024/04/01 00:24:57;;;;;;;0.00;0.00;;;;;;;12.56;100.00;100484.94;105951;1252;61957;-75
2024/04/01 00:27:25;;;;;;;0.00;0.00;;;;;;;12.53;100.00;100485.07;106875;1259;75414;-80
2024/04/01 00:29:52;;;;;;;0.00;0.00;;;;;;;12.52;100.00;100482.95;106095;1257;67228;-75
2024/04/01 00:32:20;;;;;;;0.00;0.00;;;;;;;12.49;100.00;100478.30;105924;1258;72904;-75
2024/04/01 00:34:48;;;;;;;0.90;0.20;;;;;;;12.48;100.00;100477.93;105979;1254;62248;-75
2024/04/01 00:37:16;;;;;;;0.00;0.00;;;;;;;12.47;100.00;100480.96;105960;1256;62159;-75
2024/04/01 00:39:44;;;;;;;0.00;0.00;;;;;;;12.47;100.00;100480.19;106011;1254;74276;-75
2024/04/01 00:42:11;;;;;;;0.00;0.00;;;;;;;12.44;100.00;100476.73;105877;1259;67431;-79
2024/04/01 00:44:40;;;;;;;10.70;1.30;;;;;;;12.40;100.00;100476.55;105802;1254;71380;-75
2024/04/01 00:47:07;;;;;;;0.80;0.30;;;;;;;12.39;100.00;100480.08;106096;1256;62031;-75
2024/04/01 00:49:35;;;;;;;0.30;0.30;;;;;;;12.40;100.00;100472.49;105903;1254;62079;-75
2024/04/01 00:52:03;;;;;;;0.10;0.10;;;;;;;12.42;100.00;100463.71;105763;1253;75394;-75
2024/04/01 00:54:30;;;;;;;0.20;0.20;;;;;;;12.44;100.00;100457.81;105810;1254;68387;-75
2024/04/01 00:56:58;;;;;;;0.00;0.00;;;;;;;12.42;100.00;100459.21;103561;1254;3371621;-75
2024/04/01 00:59:26;;;;;;;0.00;0.00;;;;;;;12.41;100.00;100460.52;106004;1254;62148;-75
2024/04/01 01:01:53;;;;;;;0.00;0.00;;;;;;;12.33;100.00;100464.67;106490;1257;62053;-79
2024/04/01 01:04:21;;;;;;;0.00;0.00;;;;;;;12.33;100.00;100468.84;105900;1254;74790;-75
2024/04/01 01:06:49;;;;;;;0.00;0.00;;;;;;;12.35;100.00;100464.81;105869;1253;68543;-79
2024/04/01 01:09:16;;;;;;;0.00;0.00;;;;;;;12.32;100.00;100460.69;106067;1254;72903;-79
2024/04/01 01:11:44;;;;;;;0.00;0.00;;;;;;;12.30;100.00;100463.23;105982;1254;62132;-79
2024/04/01 01:14:12;;;;;;;1.60;1.50;;;;;;;12.27;100.00;100472.91;105920;1254;62146;-80
2024/04/01 01:16:39;;;;;;;0.00;0.00;;;;;;;12.26;100.00;100474.61;108048;1254;74179;-75
2024/04/01 01:19:07;;;;;;;0.10;0.10;;;;;;;12.27;100.00;100480.25;106034;1257;67246;-78
2024/04/01 01:21:35;;;;;;;1.40;1.20;;;;;;;12.30;100.00;100478.70;106012;1259;72937;-75
2024/04/01 01:24:02;;;;;;;0.00;0.00;;;;;;;12.30;100.00;100472.92;106035;1258;62020;-75
2024/04/01 01:26:30;;;;;;;0.10;0.10;;;;;;;12.29;100.00;100470.85;106021;1253;62082;-75
2024/04/01 01:28:58;;;;;;;0.10;0.10;;;;;;;12.25;100.00;100462.52;105890;1258;74235;-75
2024/04/01 01:31:30;;;;;;;3.80;0.70;;;;;;;12.23;100.00;100464.06;105816;1258;67538;-75
2024/04/01 01:33:57;;;;;;;0.20;0.20;;;;;;;12.19;100.00;100456.94;105989;1259;73507;-75
2024/04/01 01:36:25;;;;;;;0.00;0.00;;;;;;;12.16;100.00;100453.79;106006;1253;62171;-79
2024/04/01 01:38:53;;;;;;;0.10;0.10;;;;;;;12.15;100.00;100452.21;105955;1257;62117;-75
2024/04/01 01:41:21;;;;;;;0.40;0.40;;;;;;;12.15;100.00;100447.17;105929;1256;75447;-75
2024/04/01 01:43:49;;;;;;;2.80;0.40;;;;;;;12.13;100.00;100447.13;105920;1254;68789;-79
2024/04/01 01:46:16;;;;;;;4.40;2.90;;;;;;;12.10;100.00;100450.90;106073;1254;72366;-79
2024/04/01 01:48:44;;;;;;;0.00;0.00;;;;;;;12.08;100.00;100449.16;106107;1254;62613;-79
2024/04/01 01:51:12;;;;;;;0.10;0.10;;;;;;;12.07;100.00;100445.50;105909;1256;61964;-75
2024/04/01 01:53:39;;;;;;;0.00;0.00;;;;;;;12.04;100.00;100444.87;106451;1259;74160;-79
2024/04/01 01:56:07;;;;;;;0.10;0.10;;;;;;;12.04;100.00;100443.61;106095;1256;66810;-75
2024/04/01 01:58:34;;;;;;;0.70;0.70;;;;;;;12.03;100.00;100441.38;106158;1256;72746;-79
2024/04/01 02:01:02;;;;;;;0.30;0.20;;;;;;;11.97;100.00;100440.99;106032;1254;62051;-75
2024/04/01 02:03:30;;;;;;;0.00;0.00;;;;;;;11.95;100.00;100442.83;105972;1257;62005;-75
2024/04/01 02:05:57;;;;;;;0.00;0.00;;;;;;;11.92;100.00;100441.86;105791;1255;74271;-74
2024/04/01 02:08:25;;;;;;;0.30;0.30;;;;;;;11.88;100.00;100444.20;105907;1259;67295;-74
2024/04/01 02:10:56;;;;;;;0.60;0.60;;;;;;;11.85;100.00;100453.24;106066;1257;72732;-80
2024/04/01 02:13:23;;;;;;;1.30;1.20;;;;;;;11.86;100.00;100454.54;105884;1254;62177;-75
2024/04/01 02:15:51;;;;;;;0.00;0.00;;;;;;;11.84;100.00;100461.41;105926;1256;61947;-79
2024/04/01 02:18:20;;;;;;;2.00;1.80;;;;;;;11.81;100.00;100460.95;105898;1259;75528;-79
2024/04/01 02:20:51;;;;;;;0.40;0.40;;;;;;;11.79;100.00;100451.59;106018;1252;67586;-76
2024/04/01 02:23:18;;;;;;;0.50;0.20;;;;;;;11.75;100.00;100449.16;105934;1257;72628;-79
2024/04/01 02:25:46;;;;;;;0.00;0.00;;;;;;;11.70;100.00;100447.02;106017;1254;62127;-79
2024/04/01 02:28:14;;;;;;;0.00;0.00;;;;;;;11.67;100.00;100442.34;106038;1257;61970;-75
2024/04/01 02:30:42;;;;;;;0.50;0.50;;;;;;;11.67;100.00;100443.11;106086;1254;74237;-75
2024/04/01 02:33:09;;;;;;;30.30;1.70;;;;;;;11.64;100.00;100435.14;106131;1254;68387;-79
2024/04/01 02:35:37;;;;;;;0.00;0.00;;;;;;;11.57;100.00;100431.42;106019;1254;73184;-75
2024/04/01 02:38:04;;;;;;;0.00;0.00;;;;;;;11.50;100.00;100430.87;106009;1254;62053;-76
2024/04/01 02:40:32;;;;;;;0.00;0.00;;;;;;;11.44;100.00;100427.14;106100;1255;61907;-76
2024/04/01 02:42:59;;;;;;;0.10;0.10;;;;;;;11.41;100.00;100429.02;105959;1255;74242;-80
2024/04/01 02:45:29;;;;;;;1.00;1.00;;;;;;;11.38;100.00;100421.98;106014;1259;68845;-80
2024/04/01 02:47:57;;;;;;;1.50;1.40;;;;;;;11.35;100.00;100407.73;106238;1254;72659;-76
2024/04/01 02:50:24;;;;;;;0.00;0.00;;;;;;;11.28;100.00;100394.98;106463;1257;62261;-80
2024/04/01 02:52:52;;;;;;;0.70;0.70;;;;;;;11.21;100.00;100395.86;105961;1252;62158;-76
2024/04/01 02:55:20;;;;;;;0.90;0.60;;;;;;;11.21;100.00;100398.86;106043;1260;75458;-76
2024/04/01 02:57:47;;;;;;;0.00;0.00;;;;;;;11.19;100.00;100399.20;105960;1254;68750;-80
2024/04/01 03:00:18;;;;;;;0.10;0.10;;;;;;;11.17;100.00;100394.45;105830;1260;71404;-76
2024/04/01 03:02:46;;;;;;;0.10;0.10;;;;;;;11.14;100.00;100383.38;105962;1258;62005;-80
2024/04/01 03:05:14;;;;;;;0.20;0.20;;;;;;;11.15;100.00;100382.71;105980;1254;62136;-80
2024/04/01 03:07:43;;;;;;;0.20;0.20;;;;;;;11.13;100.00;100388.20;105925;1254;74173;-80
2024/04/01 03:10:11;;;;;;;1.30;1.20;;;;;;;11.11;100.00;100394.07;105926;1260;68412;-76
2024/04/01 03:12:42;;;;;;;3.70;3.40;;;;;;;11.12;100.00;100403.69;108670;1253;71384;-80
2024/04/01 03:15:18;;;;;;;0.10;0.10;;;;;;;11.13;100.00;100404.28;106390;1253;62094;-76
2024/04/01 03:17:46;;;;;;;0.10;0.10;;;;;;;11.14;100.00;100404.44;106472;1258;61963;-76
2024/04/01 03:20:14;;;;;;;0.10;0.10;;;;;;;11.15;100.00;100407.50;105954;1259;75871;-76
2024/04/01 03:22:42;;;;;;;0.20;0.20;;;;;;;11.13;100.00;100410.95;106022;1253;68733;-80
2024/04/01 03:25:09;;;;;;;0.10;0.10;;;;;;;11.11;100.00;100414.85;105948;1260;72695;-76
2024/04/01 03:27:37;;;;;;;0.10;0.10;;;;;;;11.04;100.00;100418.52;105907;1254;62146;-76
2024/04/01 03:30:05;;;;;;;0.00;0.00;;;;;;;11.05;100.00;100410.95;105865;1257;62535;-80
2024/04/01 03:32:33;;;;;;;0.20;0.20;;;;;;;11.06;100.00;100412.70;106006;1260;75442;-80
2024/04/01 03:35:00;;;;;;;0.00;0.00;;;;;;;11.06;100.00;100411.87;106018;1259;68733;-79
2024/04/01 03:37:28;;;;;;;0.00;0.00;;;;;;;11.08;100.00;100415.30;106019;1256;72323;-80
2024/04/01 03:39:56;;;;;;;0.10;0.10;;;;;;;11.11;100.00;100412.06;105999;1258;62158;-76
2024/04/01 03:42:24;;;;;;;0.10;0.10;;;;;;;11.13;100.00;100413.36;105874;1259;60749;-80
2024/04/01 03:44:54;;;;;;;1.50;1.40;;;;;;;11.17;100.00;100412.67;105816;1259;74486;-80
2024/04/01 03:47:22;;;;;;;0.40;0.40;;;;;;;11.16;100.00;100413.98;105700;1260;68469;-76
2024/04/01 03:49:50;;;;;;;0.30;0.30;;;;;;;11.14;100.00;100413.23;105926;1260;76506;-76
2024/04/01 03:52:18;;;;;;;0.10;0.10;;;;;;;11.14;100.00;100402.90;105895;1254;62159;-76
2024/04/01 03:54:45;;;;;;;0.00;0.00;;;;;;;11.13;100.00;100396.13;105971;1258;62039;-76
2024/04/01 03:57:13;;;;;;;0.10;0.10;;;;;;;11.13;100.00;100399.36;105825;1260;75405;-80
2024/04/01 03:59:40;;;;;;;0.40;0.40;;;;;;;11.16;100.00;100400.54;105991;1254;68746;-80
2024/04/01 04:02:08;;;;;;;0.30;0.30;;;;;;;11.23;100.00;100404.33;105999;1254;71555;-79
2024/04/01 04:04:35;;;;;;;0.70;0.70;;;;;;;11.24;100.00;100397.20;105731;1254;62110;-80
2024/04/01 04:07:03;;;;;;;0.10;0.10;;;;;;;11.28;100.00;100390.61;107459;1254;60062;-80
2024/04/01 04:09:31;;;;;;;0.20;0.20;;;;;;;11.39;100.00;100383.67;105991;1259;74257;-76
2024/04/01 04:11:58;;;;;;;0.00;0.00;;;;;;;11.48;100.00;100386.18;106035;1257;68406;-76
2024/04/01 04:14:26;;;;;;;0.30;0.30;;;;;;;11.55;100.00;100390.45;105988;1260;71372;-80
2024/04/01 04:16:54;;;;;;;2.80;1.80;;;;;;;11.59;100.00;100391.89;106000;1254;62152;-80
2024/04/01 04:19:22;;;;;;;2.20;2.00;;;;;;;11.64;100.00;100406.34;105855;1259;62143;-80
2024/04/01 04:21:50;;;;;;;0.60;0.20;;;;;;;11.71;100.00;100417.93;105809;1259;76142;-80
2024/04/01 04:24:18;;;;;;;0.40;0.40;;;;;;;11.79;100.00;100429.96;105921;1254;67409;-76
2024/04/01 04:26:45;;;;;;;1.70;1.60;;;;;;;11.84;100.00;100436.82;106026;1254;73276;-80
2024/04/01 04:29:13;;;;;;;0.00;0.00;;;;;;;11.88;100.00;100442.13;105991;1256;62121;-80
2024/04/01 04:31:43;;;;;;;0.10;0.10;;;;;;;11.89;100.00;100444.79;105865;1260;62527;-80
2024/04/01 04:34:11;;;;;;;0.10;0.10;;;;;;;11.94;100.00;100445.90;106167;1259;75387;-76
2024/04/01 04:36:38;;;;;;;0.70;0.70;;;;;;;11.99;100.00;100444.98;105774;1260;67116;-80
2024/04/01 04:39:19;;;;;;;1.00;0.90;;;;;;;12.01;100.00;100437.13;105935;1260;72838;-81
2024/04/01 04:41:47;;;;;;;0.10;0.10;;;;;;;12.09;100.00;100424.17;105819;1254;62120;-80
2024/04/01 04:44:14;;;;;;;0.80;0.80;;;;;;;12.17;100.00;100418.77;105934;1260;62082;-80
2024/04/01 04:46:42;;;;;;;0.00;0.00;;;;;;;12.23;100.00;100419.32;105838;1263;76069;-80
2024/04/01 04:49:10;;;;;;;0.40;0.40;;;;;;;12.29;100.00;100417.88;106007;1260;68727;-81
2024/04/01 04:51:37;;;;;;;0.30;0.30;;;;;;;12.34;100.00;100420.17;106005;1260;71466;-76
2024/04/01 04:54:06;;;;;;;0.10;0.10;;;;;;;12.42;100.00;100413.16;105945;1260;63628;-80
2024/04/01 04:56:34;;;;;;;0.60;0.60;;;;;;;12.47;100.00;100411.73;105834;1255;62047;-80
2024/04/01 04:59:03;;;;;;;1.30;1.20;;;;;;;12.54;100.00;100412.81;106007;1254;75533;-81
2024/04/01 05:01:32;;;;;;;0.20;0.20;;;;;;;12.60;100.00;100413.99;105964;1253;68335;-76
2024/04/01 05:04:00;;;;;;;0.10;0.10;;;;;;;12.67;100.00;100417.95;106436;1254;72643;-76
2024/04/01 05:06:27;;;;;;;0.70;0.70;;;;;;;12.77;100.00;100421.12;106120;1254;62079;-81
2024/04/01 05:08:56;;;;;;;0.10;0.10;;;;;;;12.86;100.00;100420.23;106032;1260;61967;-76
2024/04/01 05:11:23;;;;;;;2.10;2.00;;;;;;;12.92;100.00;100419.27;105941;1259;74170;-81
2024/04/01 05:13:51;;;;;;;0.40;0.30;;;;;;;13.00;100.00;100416.76;105909;1254;67322;-76
2024/04/01 05:16:19;;;;;;;0.10;0.10;;;;;;;13.11;100.00;100411.70;105901;1254;71376;-77
2024/04/01 05:18:46;;;;;;;0.00;0.00;;;;;;;13.23;100.00;100407.36;106061;1254;62069;-80
2024/04/01 05:21:14;;;;;;;0.70;0.70;;;;;;;13.33;100.00;100404.26;106084;1254;62213;-75
2024/04/01 05:23:42;;;;;;;0.40;0.40;;;;;;;13.44;100.00;100400.52;105909;1260;74671;-81
2024/04/01 05:26:10;;;;;;;1.50;1.40;;;;;;;13.53;100.00;100390.74;106025;1257;67173;-79
2024/04/01 05:28:38;;;;;;;0.10;0.10;;;;;;;13.61;100.00;100386.22;105908;1257;72925;-76
2024/04/01 05:31:06;;;;;;;0.20;0.20;;;;;;;13.70;100.00;100381.08;105854;1254;62159;-75
2024/04/01 05:33:33;;;;;;;0.10;0.10;;;;;;;13.81;100.00;100377.52;105945;1254;62057;-81
2024/04/01 05:36:02;;;;;;;0.20;0.20;;;;;;;13.89;100.00;100378.36;105939;1255;75556;-77
2024/04/01 05:38:30;;;;;;;0.70;0.30;;;;;;;13.97;100.00;100384.75;106023;1255;68304;-75
2024/04/01 05:40:58;;;;;;;0.00;0.00;;;;;;;14.10;100.00;100386.98;106217;1254;72691;-75
2024/04/01 05:43:25;;;;;;;0.80;0.70;;;;;;;14.15;100.00;100395.67;106063;1257;62075;-80
2024/04/01 05:45:53;;;;;;;0.00;0.00;;;;;;;14.23;100.00;100394.58;105861;1254;62072;-75
2024/04/01 05:48:20;;;;;;;0.60;0.60;;;;;;;14.34;100.00;100394.15;106255;1260;75445;-75
2024/04/01 05:50:49;;;;;;;0.30;0.30;;;;;;;14.46;100.00;100390.44;106003;1254;66773;-79
2024/04/01 05:53:17;;;;;;;0.10;0.10;;;;;;;14.57;100.00;100388.30;106019;1254;71632;-79
2024/04/01 05:55:45;;;;;;;0.10;0.10;;;;;;;14.69;100.00;100387.12;105971;1260;62197;-79
2024/04/01 05:58:13;;;;;;;0.40;0.40;;;;;;;14.80;100.00;100387.36;106293;1254;62086;-75
2024/04/01 06:00:40;;;;;;;1.70;1.50;;;;;;;14.94;100.00;100382.05;106145;1254;73781;-79
2024/04/01 06:03:08;;;;;;;0.00;0.00;;;;;;;15.05;100.00;100380.29;105871;1254;67345;-79
2024/04/01 06:05:35;;;;;;;3.90;1.70;;;;;;;15.17;100.00;100380.36;106418;1259;74850;-75
2024/04/01 06:08:03;;;;;;;0.10;0.10;;;;;;;15.27;100.00;100379.08;108051;1253;62415;-80
2024/04/01 06:10:31;;;;;;;0.20;0.20;;;;;;;15.33;100.00;100386.55;106012;1256;62069;-75
2024/04/01 06:12:59;;;;;;;0.10;0.10;;;;;;;15.39;100.00;100387.33;105974;1257;76532;-75
2024/04/01 06:15:26;;;;;;;0.00;0.00;;;;;;;15.43;100.00;100389.39;106025;1257;71080;-80
2024/04/01 06:17:54;;;;;;;0.00;0.00;;;;;;;15.52;100.00;100385.08;105948;1260;75457;-79
2024/04/01 06:20:21;;;;;;;0.10;0.10;;;;;;;15.60;100.00;100381.34;105914;1254;62047;-75
2024/04/01 06:22:49;;;;;;;0.00;0.00;;;;;;;15.66;100.00;100381.67;105915;1260;61970;-79
2024/04/01 06:25:18;;;;;;;0.30;0.30;;;;;;;15.74;100.00;100378.54;105894;1259;75861;-76
2024/04/01 06:27:46;;;;;;;0.20;0.20;;;;;;;15.82;100.00;100381.28;105944;1258;67412;-79
2024/04/01 06:30:14;;;;;;;0.40;0.40;;;;;;;15.90;100.00;100379.77;105984;1254;72718;-76
2024/04/01 06:32:41;;;;;;;2.60;1.70;;;;;;;16.02;100.00;100383.19;106018;1254;62456;-75
2024/04/01 06:35:09;;;;;;;0.10;0.10;;;;;;;16.21;100.00;100381.70;105979;1259;62060;-76
2024/04/01 06:37:37;;;;;;;0.10;0.10;;;;;;;16.41;100.00;100381.98;105966;1260;76869;-76
2024/04/01 06:40:05;;;;;;;0.10;0.10;;;;;;;16.57;100.00;100381.55;106066;1259;70055;-79
2024/04/01 06:42:33;;;;;;;4.60;0.80;;;;;;;16.77;100.00;100385.66;105911;1254;73419;-79
2024/04/01 06:45:01;;;;;;;0.50;0.40;;;;;;;16.95;100.00;100385.37;105889;1254;62252;-79
2024/04/01 06:47:28;;;;;;;0.00;0.00;;;;;;;17.12;100.00;100389.69;106470;1255;62060;-79
2024/04/01 06:49:56;;;;;;;0.10;0.10;;;;;;;17.29;100.00;100387.94;105963;1257;77327;-79
2024/04/01 06:52:24;;;;;;;0.50;0.50;;;;;;;17.46;100.00;100392.23;105905;1254;71090;-79
2024/04/01 06:54:52;;;;;;;473.80;266.00;;;;;;;17.65;100.00;100393.33;106005;1255;70488;-79
2024/04/01 06:57:20;;;;;;;0.20;0.20;;;;;;;17.85;100.00;100388.38;105941;1254;62582;-75
2024/04/01 06:59:48;;;;;;;0.40;0.40;;;;;;;17.99;100.00;100388.95;105937;1257;62142;-79
2024/04/01 07:02:15;;;;;;;0.30;0.30;;;;;;;18.08;100.00;100383.45;106766;1252;77555;-80
2024/04/01 07:04:43;;;;;;;0.10;0.10;;;;;;;18.27;100.00;100383.08;105867;1254;70547;-79
2024/04/01 07:07:11;;;;;;;0.30;0.30;;;;;;;18.33;100.00;100388.05;105995;1260;74618;-76
2024/04/01 07:09:38;;;;;;;0.50;0.50;;;;;;;18.37;100.00;100384.27;106071;1254;62313;-75
2024/04/01 07:12:07;;;;;;;0.20;0.10;;;;;;;18.43;100.00;100382.02;105963;1255;62153;-75
2024/04/01 07:14:34;;;;;;;16.60;5.30;;;;;;;18.52;100.00;100376.96;105916;1254;78322;-75
2024/04/01 07:17:02;;;;;;;15.50;5.10;;;;;;;18.59;100.00;100380.10;106423;1254;69601;-76
2024/04/01 07:19:30;;;;;;;15.80;4.40;;;;;;;18.64;100.00;100379.35;105933;1254;75113;-76
2024/04/01 07:21:58;;;;;;;14.60;4.30;;;;;;;18.69;100.00;100379.13;105968;1254;62155;-76
2024/04/01 07:24:26;;;;;;;19.80;5.50;;;;;;;18.86;100.00;100374.61;106106;1257;62181;-79
2024/04/01 07:26:53;;;;;;;17.90;6.30;;;;;;;19.06;100.00;100370.60;105843;1257;75512;-79
2024/04/01 07:29:21;;;;;;;17.10;4.10;;;;;;;19.11;100.00;100371.65;105846;1254;71207;-76
2024/04/01 07:31:49;;;;;;;15.60;4.60;;;;;;;19.11;99.80;100370.54;106163;1255;74933;-80
2024/04/01 07:34:16;;;;;;;15.30;4.40;;;;;;;19.16;99.99;100366.95;106011;1254;62229;-79
2024/04/01 07:36:45;;;;;;;16.30;4.70;;;;;;;19.19;99.37;100355.57;106056;1254;62079;-79
2024/04/01 07:39:12;;;;;;;16.10;4.10;;;;;;;19.17;100.00;100355.33;106389;1253;76532;-80
2024/04/01 07:41:40;;;;;;;19.20;4.80;;;;;;;19.16;100.00;100352.37;106039;1257;69443;-76
2024/04/01 07:44:08;;;;;;;14.50;5.10;;;;;;;19.10;99.36;100343.60;105966;1255;74717;-79
2024/04/01 07:46:36;;;;;;;14.90;4.80;;;;;;;19.01;98.84;100345.88;105884;1261;62072;-79
2024/04/01 07:49:04;;;;;;;17.70;4.10;;;;;;;18.95;98.35;100348.14;105925;1254;62855;-75
2024/04/01 07:51:31;;;;;;;22.00;5.40;;;;;;;18.89;99.72;100352.50;105936;1255;75935;-79
2024/04/01 07:53:59;;;;;;;16.30;5.40;;;;;;;18.86;100.00;100352.75;106014;1254;70808;-81
2024/04/01 07:56:28;;;;;;;13.30;4.70;;;;;;;18.82;100.00;100355.85;105916;1257;75086;-81
2024/04/01 07:58:56;;;;;;;17.70;5.50;;;;;;;18.79;100.00;100357.73;105923;1254;61980;-80
2024/04/01 08:01:27;;;;;;;22.00;6.80;;;;;;;18.79;100.00;100355.69;105923;1253;62412;-79
2024/04/01 08:03:55;;;;;;;17.20;5.50;;;;;;;18.83;100.00;100351.21;105930;1253;77559;-77
2024/04/01 08:06:23;;;;;;;18.00;5.30;;;;;;;18.89;100.00;100350.90;105881;1254;71186;-80
2024/04/01 08:08:50;;;;;;;23.70;5.50;;;;;;;18.97;100.00;100355.37;105900;1260;73823;-81
2024/04/01 08:11:18;;;;;;;19.30;5.50;;;;;;;18.96;100.00;100360.63;105923;1257;62066;-77
2024/04/01 08:13:46;;;;;;;18.90;5.70;;;;;;;18.98;100.00;100360.55;105934;1254;62195;-81
2024/04/01 08:16:13;;;;;;;20.60;6.10;;;;;;;19.00;100.00;100359.70;105997;1258;75984;-76
2024/04/01 08:18:41;;;;;;;17.60;5.20;;;;;;;19.13;100.00;100355.73;105988;1254;69409;-80
2024/04/01 08:21:09;;;;;;;17.80;6.40;;;;;;;19.15;100.00;100355.66;105935;1254;73825;-77
2024/04/01 08:23:36;;;;;;;17.30;5.60;;;;;;;19.22;99.98;100353.52;105944;1257;62184;-81
2024/04/01 08:26:04;;;;;;;19.60;5.30;;;;;;;19.14;98.98;100350.57;106057;1254;62222;-77
2024/04/01 08:28:32;;;;;;;18.30;5.40;;;;;;;19.10;98.85;100358.98;106013;1254;76452;-79
2024/04/01 08:31:00;;;;;;;16.10;4.90;;;;;;;19.10;99.87;100360.63;105905;1260;71141;-76
2024/04/01 08:33:28;;;;;;;23.50;5.90;;;;;;;19.19;99.95;100351.92;105839;1253;74785;-81
2024/04/01 08:35:55;;;;;;;15.90;5.60;;;;;;;19.29;99.67;100352.70;105808;1257;62247;-77
2024/04/01 08:38:23;;;;;;;20.40;5.60;;;;;;;19.37;99.31;100356.84;106050;1254;62429;-77
2024/04/01 08:40:56;;;;;;;17.70;5.60;;;;;;;19.42;98.42;100348.16;105865;1259;77378;-77
2024/04/01 08:43:31;;;;;;;15.50;5.00;;;;;;;19.47;98.97;100351.36;105904;1257;70380;-80
2024/04/01 08:45:58;;;;;;;15.00;5.40;;;;;;;19.62;99.22;100359.04;105890;1253;73944;-77
2024/04/01 08:48:26;;;;;;;17.10;5.30;;;;;;;19.77;96.68;100358.66;105987;1259;62175;-79
2024/04/01 08:50:56;;;;;;;16.50;5.10;;;;;;;19.85;93.49;100354.52;105813;1259;63247;-76
2024/04/01 08:53:50;;;;;;;19.60;6.10;;;;;;;19.87;94.21;100356.56;105904;1254;75905;-79
2024/04/01 08:56:19;;;;;;;12.70;4.40;;;;;;;19.97;95.70;100357.05;105969;1253;69865;-76
2024/04/01 08:58:47;;;;;;;17.90;5.00;;;;;;;20.14;97.65;100355.56;105895;1254;73916;-79
2024/04/01 09:01:14;;;;;;;17.20;5.10;;;;;;;20.28;96.47;100358.39;106077;1254;62069;-79
2024/04/01 09:03:42;;;;;;;14.80;4.70;;;;;;;20.44;94.90;100356.52;105907;1257;62002;-80
2024/04/01 09:06:09;;;;;;;14.30;4.80;;;;;;;20.55;90.84;100355.21;106096;1254;76424;-76
2024/04/01 09:08:39;;;;;;;18.20;5.00;;;;;;;20.68;87.61;100351.16;105979;1259;70729;-79
2024/04/01 09:11:07;;;;;;;15.00;4.10;;;;;;;20.72;85.92;100347.48;105943;1254;74097;-76
2024/04/01 09:13:35;;;;;;;13.90;4.70;;;;;;;20.79;86.54;100343.58;105959;1254;62523;-79
2024/04/01 09:16:02;;;;;;;14.00;4.60;;;;;;;20.84;86.20;100343.02;105970;1254;62069;-76
2024/04/01 09:18:36;;;;;;;19.40;5.20;;;;;;;20.97;87.16;100338.48;105907;1259;77390;-76
2024/04/01 09:21:07;;;;;;;15.70;4.30;;;;;;;21.09;86.45;100336.44;106016;1255;70452;-76
2024/04/01 09:23:41;;;;;;;11.40;3.90;;;;;;;21.26;85.87;100337.38;105838;1254;75017;-79
2024/04/01 09:26:09;;;;;;;14.40;5.00;;;;;;;21.41;86.12;100335.77;106304;1253;62383;-74
2024/04/01 09:28:36;;;;;;;18.10;4.70;;;;;;;21.61;85.57;100332.90;107100;1253;63485;-79
2024/04/01 09:31:04;;;;;;;15.60;4.50;;;;;;;21.80;82.30;100331.23;106025;1254;78181;-79
2024/04/01 09:33:32;;;;;;;17.20;4.70;;;;;;;22.00;80.97;100336.02;106502;1253;71036;-80
2024/04/01 09:36:00;;;;;;;21.20;4.90;;;;;;;22.13;79.25;100333.09;106211;1254;74852;-77
2024/04/01 09:38:29;;;;;;;14.00;4.90;;;;;;;22.24;75.86;100333.54;105931;1260;62175;-79
2024/04/01 09:40:57;;;;;;;19.20;5.30;;;;;;;22.26;75.09;100332.80;105920;1254;61970;-79
2024/04/01 09:43:26;;;;;;;15.90;4.90;;;;;;;22.33;73.97;100334.48;105955;1257;77981;-76
2024/04/01 09:46:12;;;;;;;18.60;4.60;;;;;;;22.40;73.33;100332.70;105920;1258;69644;-79
2024/04/01 09:48:40;;;;;;;16.90;4.20;;;;;;;22.42;73.37;100331.02;105899;1254;74797;-76
2024/04/01 09:51:07;;;;;;;15.00;4.20;;;;;;;22.48;72.78;100330.60;105754;1259;62527;-76
2024/04/01 09:53:35;;;;;;;10.80;4.00;;;;;;;22.55;71.31;100330.04;105717;1253;62742;-80
2024/04/01 09:56:22;;;;;;;16.20;4.70;;;;;;;22.62;72.07;100333.52;106068;1253;76926;-77
2024/04/01 09:59:08;;;;;;;15.80;4.30;;;;;;;22.75;68.83;100330.41;106093;1255;69881;-77
2024/04/01 10:02:02;;;;;;;14.20;4.50;;;;;;;22.83;67.80;100334.63;106022;1254;74967;-80
2024/04/01 10:05:19;;;;;;;15.50;5.00;;;;;;;22.90;66.86;100335.98;105918;1254;62430;-80
2024/04/01 10:08:03;;;;;;;14.20;4.00;;;;;;;22.95;66.34;100337.27;106057;1256;61967;-77
2024/04/01 10:10:46;;;;;;;17.40;4.90;;;;;;;22.93;67.89;100336.90;105930;1257;78248;-80
2024/04/01 10:13:47;;;;;;;15.90;4.10;;;;;;;22.99;64.24;100333.78;106020;1254;69654;-80
2024/04/01 10:16:42;;;;;;;14.20;4.10;;;;;;;23.03;63.65;100325.27;105570;1265;74792;-80
2024/04/01 10:19:25;;;;;;;15.20;3.90;;;;;;;23.09;64.44;100325.32;106047;1254;62191;-80
2024/04/01 10:21:56;;;;;;;18.60;3.70;;;;;;;23.11;63.06;100320.59;107334;1254;62188;-78
2024/04/01 10:24:48;;;;;;;14.20;4.10;;;;;;;23.08;62.77;100321.88;107108;1254;77292;-77
2024/04/01 10:27:46;;;;;;;18.00;4.90;;;;;;;22.93;61.84;100318.44;106453;1252;71191;-80
2024/04/01 10:30:37;;;;;;;19.10;4.10;;;;;;;22.80;62.46;100314.42;105942;1254;75071;-80
2024/04/01 10:33:36;;;;;;;15.70;4.20;;;;;;;22.71;63.28;100317.34;106043;1254;62156;-77
2024/04/01 10:36:10;;;;;;;17.20;4.80;;;;;;;22.62;64.08;100322.15;107241;1252;61937;-77
2024/04/01 10:38:53;;;;;;;21.00;5.00;;;;;;;22.57;66.19;100326.56;106113;1258;77551;-76
2024/04/01 10:42:09;;;;;;;16.30;3.90;;;;;;;22.59;65.37;100323.67;107857;1257;71093;-80
2024/04/01 10:45:14;;;;;;;14.70;3.90;;;;;;;22.69;66.04;100314.59;105496;1261;74630;-77
2024/04/01 10:48:03;;;;;;;13.10;3.50;;;;;;;22.72;64.48;100312.75;105939;1261;62512;-79
2024/04/01 10:51:15;;;;;;;15.70;4.40;;;;;;;22.74;64.56;100308.02;105916;1256;62162;-80
2024/04/01 10:53:59;;;;;;;15.40;4.40;;;;;;;22.76;63.68;100314.02;106019;1253;76458;-80
2024/04/01 10:56:58;;;;;;;14.10;4.00;;;;;;;22.78;63.20;100314.30;106001;1258;69973;-80
2024/04/01 10:59:45;;;;;;;16.40;4.60;;;;;;;22.81;63.29;100311.73;106029;1254;74278;-80
2024/04/01 11:02:32;;;;;;;14.30;4.40;;;;;;;22.81;64.61;100311.59;106000;1254;62107;-77
2024/04/01 11:05:05;;;;;;;17.50;5.10;;;;;;;22.88;64.35;100312.77;106016;1254;62098;-80
2024/04/01 11:07:55;;;;;;;20.80;5.20;;;;;;;22.92;63.13;100307.92;106103;1257;77585;-80
2024/04/01 11:10:39;;;;;;;12.80;4.10;;;;;;;22.98;62.68;100305.90;105902;1254;71143;-80
2024/04/01 11:13:18;;;;;;;12.20;4.40;;;;;;;23.06;65.82;100308.79;105883;1257;73768;-80
2024/04/01 11:15:48;;;;;;;16.20;4.00;;;;;;;23.21;66.15;100302.45;106077;1253;62032;-82
2024/04/01 11:18:34;;;;;;;16.10;4.80;;;;;;;23.39;65.14;100297.31;106108;1254;61971;-76
2024/04/01 11:21:02;;;;;;;11.00;4.40;;;;;;;23.62;62.30;100288.95;105931;1258;77392;-80
2024/04/01 11:23:45;;;;;;;19.40;4.30;;;;;;;23.82;60.69;100285.27;105943;1254;70064;-81